createdAt,value
2017-10-03T00:00:46.020Z,13.78
2017-10-03T00:01:56.274Z,13.73
2017-10-03T00:03:06.531Z,13.86
2017-10-03T00:04:16.711Z,13.82
2017-10-03T00:05:26.956Z,13.79
2017-10-03T00:06:37.199Z,13.73
2017-10-03T00:07:47.452Z,13.79
2017-10-03T00:08:57.383Z,13.75
2017-10-03T00:10:07.882Z,13.7
2017-10-03T00:11:18.143Z,13.68
2017-10-03T00:12:28.416Z,13.73
2017-10-03T00:13:38.682Z,13.65
2017-10-03T00:14:48.939Z,13.6
2017-10-03T00:15:59.438Z,13.67
2017-10-03T00:17:09.388Z,13.64
2017-10-03T00:18:20.159Z,13.65
2017-10-03T00:19:30.409Z,13.58
2017-10-03T00:20:40.653Z,13.57
2017-10-03T00:21:51.182Z,13.55
2017-10-03T00:23:00.797Z,13.52
2017-10-03T00:24:11.051Z,13.45
2017-10-03T00:25:20.996Z,13.5
2017-10-03T00:26:30.945Z,13.46
2017-10-03T00:27:41.134Z,13.46
2017-10-03T00:28:50.763Z,13.45
2017-10-03T00:30:00.077Z,13.42
2017-10-03T00:31:10.327Z,13.4
2017-10-03T00:32:20.574Z,13.46
2017-10-03T00:33:31.070Z,13.4
2017-10-03T00:34:41.339Z,13.45
2017-10-03T00:35:50.651Z,13.36
2017-10-03T00:37:00.587Z,13.39
2017-10-03T00:38:10.829Z,13.37
2017-10-03T00:39:21.344Z,13.37
2017-10-03T00:40:31.594Z,13.37
2017-10-03T00:41:41.523Z,13.3
2017-10-03T00:42:51.776Z,13.39
2017-10-03T00:44:02.017Z,13.33
2017-10-03T00:45:12.551Z,13.45
2017-10-03T00:46:22.146Z,13.36
2017-10-03T00:47:32.396Z,13.42
2017-10-03T00:48:42.645Z,13.37
2017-10-03T00:49:52.585Z,13.28
2017-10-03T00:51:03.081Z,13.36
2017-10-03T00:52:13.338Z,13.28
2017-10-03T00:53:23.590Z,13.3
2017-10-03T00:54:33.207Z,13.31
2017-10-03T00:55:43.460Z,13.3
2017-10-03T00:56:53.654Z,13.19
2017-10-03T00:58:03.898Z,13.21
2017-10-03T00:59:13.831Z,13.2
2017-10-03T01:00:23.775Z,13.13
2017-10-03T01:01:34.020Z,13.11
2017-10-03T01:02:44.515Z,13.11
2017-10-03T01:03:54.449Z,13.08
2017-10-03T01:05:04.394Z,13.05
2017-10-03T01:06:14.648Z,13.08
2017-10-03T01:07:24.918Z,13.03
2017-10-03T01:08:35.120Z,13.08
2017-10-03T01:09:45.357Z,12.95
2017-10-03T01:10:54.991Z,13.08
2017-10-03T01:12:05.271Z,12.99
2017-10-03T01:13:14.901Z,12.9
2017-10-03T01:14:25.408Z,12.98
2017-10-03T01:15:35.962Z,12.94
2017-10-03T01:16:45.902Z,12.94
2017-10-03T01:17:56.151Z,12.9
2017-10-03T01:19:06.397Z,12.98
2017-10-03T01:20:16.904Z,12.99
2017-10-03T01:21:27.159Z,12.9
2017-10-03T01:22:37.398Z,12.93
2017-10-03T01:23:47.652Z,12.9
2017-10-03T01:24:57.900Z,12.88
2017-10-03T01:26:08.101Z,12.88
2017-10-03T01:27:18.031Z,12.84
2017-10-03T01:28:27.964Z,12.87
2017-10-03T01:29:38.211Z,12.98
2017-10-03T01:30:48.465Z,12.91
2017-10-03T01:31:58.963Z,12.87
2017-10-03T01:33:09.220Z,12.86
2017-10-03T01:34:19.146Z,12.75
2017-10-03T01:35:29.400Z,12.83
2017-10-03T01:36:39.338Z,12.73
2017-10-03T01:37:49.532Z,12.75
2017-10-03T01:38:59.789Z,12.7
2017-10-03T01:40:10.054Z,12.8
2017-10-03T01:41:19.991Z,12.8
2017-10-03T01:42:30.235Z,12.63
2017-10-03T01:43:40.736Z,12.75
2017-10-03T01:44:51.023Z,12.68
2017-10-03T01:46:01.271Z,12.68
2017-10-03T01:47:11.200Z,12.68
2017-10-03T01:48:20.811Z,12.69
2017-10-03T01:49:31.340Z,12.61
2017-10-03T01:50:41.592Z,12.63
2017-10-03T01:51:51.835Z,12.58
2017-10-03T01:53:02.314Z,12.51
2017-10-03T01:54:12.568Z,12.47
2017-10-03T01:55:22.756Z,12.65
2017-10-03T01:56:33.012Z,12.51
2017-10-03T01:57:42.950Z,12.51
2017-10-03T01:58:53.194Z,12.54
2017-10-03T02:00:03.131Z,12.48
2017-10-03T02:01:13.639Z,12.51
2017-10-03T02:02:23.893Z,12.45
2017-10-03T02:03:34.132Z,12.44
2017-10-03T02:04:43.430Z,12.4
2017-10-03T02:05:53.670Z,12.4
2017-10-03T02:07:04.172Z,12.4
2017-10-03T02:08:14.414Z,12.37
2017-10-03T02:09:24.348Z,12.37
2017-10-03T02:10:34.593Z,12.35
2017-10-03T02:11:44.207Z,12.35
2017-10-03T02:12:54.391Z,12.37
2017-10-03T02:14:04.645Z,12.29
2017-10-03T02:15:14.590Z,12.33
2017-10-03T02:16:24.840Z,12.39
2017-10-03T02:17:35.088Z,12.37
2017-10-03T02:18:45.262Z,12.39
2017-10-03T02:19:55.515Z,12.32
2017-10-03T02:21:05.766Z,12.33
2017-10-03T02:22:15.696Z,12.28
2017-10-03T02:23:25.625Z,12.28
2017-10-03T02:24:35.805Z,12.25
2017-10-03T02:25:46.054Z,12.26
2017-10-03T02:26:56.304Z,12.25
2017-10-03T02:28:06.548Z,12.25
2017-10-03T02:29:16.798Z,12.25
2017-10-03T02:30:27.288Z,12.25
2017-10-03T02:31:37.574Z,12.18
2017-10-03T02:32:47.506Z,12.26
2017-10-03T02:33:57.753Z,12.18
2017-10-03T02:35:08.009Z,12.17
2017-10-03T02:36:18.513Z,12.17
2017-10-03T02:37:28.754Z,12.15
2017-10-03T02:38:39.003Z,12.2
2017-10-03T02:39:48.947Z,12.17
2017-10-03T02:40:59.195Z,12.17
2017-10-03T02:42:09.373Z,12.11
2017-10-03T02:43:19.611Z,12.14
2017-10-03T02:44:29.869Z,12.08
2017-10-03T02:45:39.797Z,12.1
2017-10-03T02:46:50.058Z,12.18
2017-10-03T02:48:00.578Z,12.14
2017-10-03T02:49:10.521Z,12.11
2017-10-03T02:50:20.152Z,12.17
2017-10-03T02:51:30.393Z,12.15
2017-10-03T02:52:40.333Z,12.18
2017-10-03T02:53:50.561Z,12.17
2017-10-03T02:55:00.813Z,12.17
2017-10-03T02:56:11.056Z,12.08
2017-10-03T02:57:21.297Z,12.14
2017-10-03T02:58:31.554Z,12.23
2017-10-03T02:59:42.047Z,12.2
2017-10-03T03:00:51.990Z,12.15
2017-10-03T03:02:01.917Z,12.07
2017-10-03T03:03:12.168Z,12.12
2017-10-03T03:04:22.407Z,12.11
2017-10-03T03:05:32.902Z,12.07
2017-10-03T03:06:43.142Z,12.02
2017-10-03T03:07:53.400Z,12.07
2017-10-03T03:09:03.643Z,12.1
2017-10-03T03:10:13.885Z,12.05
2017-10-03T03:11:24.107Z,12.02
2017-10-03T03:12:33.720Z,12.08
2017-10-03T03:13:43.652Z,12.08
2017-10-03T03:14:53.595Z,12.08
2017-10-03T03:16:03.840Z,11.97
2017-10-03T03:17:14.339Z,12.12
2017-10-03T03:18:24.263Z,12
2017-10-03T03:19:34.511Z,11.95
2017-10-03T03:20:44.756Z,12.07
2017-10-03T03:21:54.376Z,11.97
2017-10-03T03:23:04.876Z,11.99
2017-10-03T03:24:14.492Z,12.02
2017-10-03T03:25:24.740Z,12
2017-10-03T03:26:34.673Z,12.07
2017-10-03T03:27:44.616Z,11.95
2017-10-03T03:28:55.108Z,11.99
2017-10-03T03:30:05.366Z,11.96
2017-10-03T03:31:15.637Z,12.02
2017-10-03T03:32:25.256Z,12.03
2017-10-03T03:33:35.501Z,12
2017-10-03T03:34:46.000Z,12.03
2017-10-03T03:35:55.931Z,11.97
2017-10-03T03:37:06.172Z,11.96
2017-10-03T03:38:16.415Z,12.03
2017-10-03T03:39:26.662Z,12.02
2017-10-03T03:40:37.164Z,12.03
2017-10-03T03:41:47.092Z,12.05
2017-10-03T03:42:57.018Z,12
2017-10-03T03:44:07.260Z,12.05
2017-10-03T03:45:16.877Z,11.99
2017-10-03T03:46:27.058Z,12.05
2017-10-03T03:47:37.307Z,11.97
2017-10-03T03:48:47.245Z,12.03
2017-10-03T03:49:57.490Z,12.05
2017-10-03T03:51:07.736Z,12
2017-10-03T03:52:18.236Z,12.05
2017-10-03T03:53:28.475Z,11.96
2017-10-03T03:54:38.716Z,12.03
2017-10-03T03:55:48.649Z,12.02
2017-10-03T03:56:58.898Z,12
2017-10-03T03:58:09.393Z,12.07
2017-10-03T03:59:19.330Z,12
2017-10-03T04:00:29.578Z,12.08
2017-10-03T04:01:39.823Z,12.02
2017-10-03T04:02:50.066Z,12.03
2017-10-03T04:04:00.246Z,12.02
2017-10-03T04:05:09.872Z,11.99
2017-10-03T04:06:20.117Z,11.99
2017-10-03T04:07:30.050Z,12.03
2017-10-03T04:08:39.983Z,12.03
2017-10-03T04:09:50.479Z,11.99
2017-10-03T04:11:00.731Z,12
2017-10-03T04:12:10.665Z,11.99
2017-10-03T04:13:20.909Z,12.03
2017-10-03T04:14:30.848Z,12.1
2017-10-03T04:15:41.360Z,11.99
2017-10-03T04:16:51.302Z,12.14
2017-10-03T04:18:01.544Z,12
2017-10-03T04:19:11.477Z,12.08
2017-10-03T04:20:21.401Z,12.05
2017-10-03T04:21:31.922Z,11.95
2017-10-03T04:22:41.844Z,12
2017-10-03T04:23:52.096Z,12.03
2017-10-03T04:25:02.343Z,11.99
2017-10-03T04:26:12.610Z,12.02
2017-10-03T04:27:22.795Z,11.95
2017-10-03T04:28:33.042Z,11.97
2017-10-03T04:29:42.973Z,11.97
2017-10-03T04:30:52.906Z,11.97
2017-10-03T04:32:02.836Z,11.99
2017-10-03T04:33:12.697Z,12
2017-10-03T04:34:22.945Z,11.96
2017-10-03T04:35:33.194Z,12
2017-10-03T04:36:43.448Z,12.03
2017-10-03T04:37:53.696Z,12.08
2017-10-03T04:39:03.560Z,11.97
2017-10-03T04:40:13.491Z,12.08
2017-10-03T04:41:23.419Z,12.05
2017-10-03T04:42:33.681Z,12.07
2017-10-03T04:43:43.925Z,12.1
2017-10-03T04:44:54.426Z,12.07
2017-10-03T04:46:04.353Z,12.1
2017-10-03T04:47:14.599Z,12.1
2017-10-03T04:48:24.854Z,12.1
2017-10-03T04:49:34.784Z,12.1
2017-10-03T04:50:44.968Z,12.08
2017-10-03T04:51:54.895Z,12
2017-10-03T04:53:05.140Z,12.02
2017-10-03T04:54:15.380Z,12.07
2017-10-03T04:55:25.326Z,12.1
2017-10-03T04:56:35.817Z,12
2017-10-03T04:57:46.057Z,11.99
2017-10-03T04:58:55.982Z,12
2017-10-03T05:00:06.235Z,12
2017-10-03T05:01:16.479Z,12.08
2017-10-03T05:02:26.658Z,11.97
2017-10-03T05:03:36.909Z,11.97
2017-10-03T05:04:47.151Z,11.95
2017-10-03T05:05:57.401Z,11.93
2017-10-03T05:07:07.339Z,12.02
2017-10-03T05:08:17.830Z,11.95
2017-10-03T05:09:27.756Z,12.02
2017-10-03T05:10:37.685Z,11.96
2017-10-03T05:11:47.936Z,12.07
2017-10-03T05:12:57.856Z,12.08
2017-10-03T05:14:08.040Z,12.02
2017-10-03T05:15:18.284Z,12.05
2017-10-03T05:16:28.216Z,11.97
2017-10-03T05:17:38.460Z,11.95
2017-10-03T05:18:48.710Z,12.03
2017-10-03T05:19:58.896Z,12.03
2017-10-03T05:21:09.134Z,12
2017-10-03T05:22:19.390Z,12.02
2017-10-03T05:23:29.636Z,12.03
2017-10-03T05:24:39.892Z,11.97
2017-10-03T05:25:50.062Z,12
2017-10-03T05:27:00.313Z,12.03
2017-10-03T05:28:10.246Z,12.02
2017-10-03T05:29:20.492Z,12
2017-10-03T05:30:30.425Z,12.07
2017-10-03T05:31:40.616Z,12.05
2017-10-03T05:32:50.556Z,11.95
2017-10-03T05:34:00.484Z,12.05
2017-10-03T05:35:10.430Z,12.05
2017-10-03T05:36:20.358Z,12.02
2017-10-03T05:37:30.851Z,12.03
2017-10-03T05:38:41.098Z,11.85
2017-10-03T05:39:51.336Z,11.96
2017-10-03T05:41:01.584Z,12.02
2017-10-03T05:42:11.836Z,12.07
2017-10-03T05:43:22.342Z,12
2017-10-03T05:44:32.583Z,11.86
2017-10-03T05:45:42.832Z,12.05
2017-10-03T05:46:52.764Z,12.03
2017-10-03T05:48:02.076Z,11.96
2017-10-03T05:49:11.632Z,11.97
2017-10-03T05:50:21.876Z,12.02
2017-10-03T05:51:31.495Z,12.05
2017-10-03T05:52:41.743Z,12.03
2017-10-03T05:53:51.683Z,12.03
2017-10-03T05:55:01.856Z,12.02
2017-10-03T05:56:11.166Z,12.03
2017-10-03T05:57:20.774Z,11.97
2017-10-03T05:58:31.027Z,11.96
2017-10-03T05:59:41.268Z,11.95
2017-10-03T06:00:51.140Z,12.07
2017-10-03T06:02:01.098Z,11.99
2017-10-03T06:03:11.340Z,11.96
2017-10-03T06:04:21.268Z,12.05
2017-10-03T06:05:31.519Z,12.03
2017-10-03T06:06:42.030Z,12.1
2017-10-03T06:07:52.264Z,12
2017-10-03T06:09:02.513Z,11.99
2017-10-03T06:10:12.765Z,11.99
2017-10-03T06:11:23.021Z,12
2017-10-03T06:12:33.510Z,11.99
2017-10-03T06:13:43.444Z,11.97
2017-10-03T06:14:53.694Z,12.11
2017-10-03T06:16:03.939Z,12.12
2017-10-03T06:17:13.865Z,12.1
2017-10-03T06:18:23.733Z,12.12
2017-10-03T06:19:33.661Z,12.03
2017-10-03T06:20:43.600Z,12.05
2017-10-03T06:21:53.864Z,12.03
2017-10-03T06:23:04.115Z,12.03
2017-10-03T06:24:14.612Z,12.08
2017-10-03T06:25:24.866Z,12.05
2017-10-03T06:26:35.109Z,12.03
2017-10-03T06:27:44.726Z,12.1
2017-10-03T06:28:54.660Z,12.11
2017-10-03T06:30:05.158Z,12.2
2017-10-03T06:31:15.110Z,12.21
2017-10-03T06:32:25.044Z,12.18
2017-10-03T06:33:35.290Z,12.14
2017-10-03T06:34:45.529Z,12.18
2017-10-03T06:35:56.039Z,12.17
2017-10-03T06:37:06.309Z,12.17
2017-10-03T06:38:16.247Z,12.1
2017-10-03T06:39:26.500Z,12.2
2017-10-03T06:40:36.752Z,12.18
2017-10-03T06:41:47.248Z,12.17
2017-10-03T06:42:57.518Z,12.25
2017-10-03T06:44:07.763Z,12.18
2017-10-03T06:45:18.016Z,12.29
2017-10-03T06:46:27.954Z,12.21
2017-10-03T06:47:38.148Z,12.26
2017-10-03T06:48:48.399Z,12.29
2017-10-03T06:49:58.351Z,12.25
2017-10-03T06:51:08.589Z,12.29
2017-10-03T06:52:18.528Z,12.23
2017-10-03T06:53:29.029Z,12.28
2017-10-03T06:54:38.991Z,12.28
2017-10-03T06:55:48.934Z,12.23
2017-10-03T06:56:58.556Z,12.23
2017-10-03T06:58:08.807Z,12.3
2017-10-03T06:59:18.996Z,12.3
2017-10-03T07:00:29.250Z,12.25
2017-10-03T07:01:39.190Z,12.21
2017-10-03T07:02:49.447Z,12.25
2017-10-03T07:03:59.690Z,12.21
2017-10-03T07:05:10.229Z,12.2
2017-10-03T07:06:20.485Z,12.18
2017-10-03T07:07:30.410Z,12.21
2017-10-03T07:08:40.345Z,12.23
2017-10-03T07:09:50.594Z,12.3
2017-10-03T07:11:01.085Z,12.35
2017-10-03T07:12:11.353Z,12.33
2017-10-03T07:13:21.601Z,12.32
2017-10-03T07:14:31.533Z,12.35
2017-10-03T07:15:41.474Z,12.35
2017-10-03T07:16:51.670Z,12.39
2017-10-03T07:18:01.918Z,12.44
2017-10-03T07:19:12.168Z,12.39
2017-10-03T07:20:22.452Z,12.48
2017-10-03T07:21:32.699Z,12.47
2017-10-03T07:22:42.881Z,12.5
2017-10-03T07:23:53.125Z,12.63
2017-10-03T07:25:03.384Z,12.63
2017-10-03T07:26:13.651Z,12.68
2017-10-03T07:27:23.594Z,12.78
2017-10-03T07:28:34.087Z,12.78
2017-10-03T07:29:44.030Z,12.72
2017-10-03T07:30:54.281Z,12.73
2017-10-03T07:32:04.218Z,12.76
2017-10-03T07:33:14.477Z,12.72
2017-10-03T07:34:24.040Z,12.76
2017-10-03T07:35:33.996Z,12.76
2017-10-03T07:36:43.927Z,12.87
2017-10-03T07:37:54.188Z,12.84
2017-10-03T07:39:04.133Z,12.84
2017-10-03T07:40:14.635Z,12.84
2017-10-03T07:41:24.889Z,12.75
2017-10-03T07:42:35.167Z,12.76
2017-10-03T07:43:45.436Z,12.75
2017-10-03T07:44:55.703Z,12.76
2017-10-03T07:46:05.897Z,12.83
2017-10-03T07:47:15.516Z,12.87
2017-10-03T07:48:25.456Z,12.86
2017-10-03T07:49:35.707Z,12.87
2017-10-03T07:50:45.963Z,12.81
2017-10-03T07:51:56.461Z,12.91
2017-10-03T07:53:06.400Z,12.9
2017-10-03T07:54:16.344Z,12.94
2017-10-03T07:55:26.602Z,12.93
2017-10-03T07:56:36.866Z,12.91
2017-10-03T07:57:47.380Z,12.93
2017-10-03T07:58:57.629Z,13.08
2017-10-03T08:00:07.900Z,13.06
2017-10-03T08:01:18.158Z,13.16
2017-10-03T08:02:28.416Z,13.12
2017-10-03T08:03:38.601Z,13.09
2017-10-03T08:04:48.846Z,13.11
2017-10-03T08:05:59.114Z,13.21
2017-10-03T08:07:09.368Z,13.12
2017-10-03T08:08:19.617Z,13.13
2017-10-03T08:09:29.950Z,13.16
2017-10-03T08:10:40.203Z,13.08
2017-10-03T08:11:50.144Z,13.16
2017-10-03T08:13:00.088Z,13.24
2017-10-03T08:14:10.360Z,13.26
2017-10-03T08:15:20.547Z,13.17
2017-10-03T08:16:30.829Z,13.3
2017-10-03T08:17:41.093Z,13.26
2017-10-03T08:18:51.376Z,13.19
2017-10-03T08:20:01.358Z,13.2
2017-10-03T08:21:11.876Z,13.3
2017-10-03T08:22:22.134Z,13.2
2017-10-03T08:23:32.394Z,13.26
2017-10-03T08:24:42.645Z,13.27
2017-10-03T08:25:52.905Z,13.24
2017-10-03T08:27:03.480Z,13.26
2017-10-03T08:28:13.726Z,13.31
2017-10-03T08:29:23.691Z,13.3
2017-10-03T08:30:33.960Z,13.3
2017-10-03T08:31:44.290Z,13.42
2017-10-03T08:32:54.430Z,13.46
2017-10-03T08:34:04.689Z,13.57
2017-10-03T08:35:14.626Z,13.5
2017-10-03T08:36:24.561Z,13.55
2017-10-03T08:37:34.812Z,13.64
2017-10-03T08:38:45.007Z,13.65
2017-10-03T08:39:55.257Z,13.73
2017-10-03T08:41:05.509Z,13.82
2017-10-03T08:42:15.756Z,13.93
2017-10-03T08:43:26.004Z,13.95
2017-10-03T08:44:36.523Z,13.95
2017-10-03T08:45:46.464Z,13.97
2017-10-03T08:46:56.398Z,13.93
2017-10-03T08:48:06.342Z,14.12
2017-10-03T08:49:16.277Z,14.18
2017-10-03T08:50:26.467Z,14.13
2017-10-03T08:51:35.779Z,14.16
2017-10-03T08:52:46.047Z,14.25
2017-10-03T08:53:56.305Z,14.19
2017-10-03T08:55:06.251Z,14.18
2017-10-03T08:56:16.760Z,14.16
2017-10-03T08:57:26.710Z,14.22
2017-10-03T08:58:36.652Z,14.26
2017-10-03T08:59:46.273Z,14.3
2017-10-03T09:00:56.523Z,14.28
2017-10-03T09:02:07.044Z,14.43
2017-10-03T09:03:17.319Z,14.49
2017-10-03T09:04:26.982Z,14.66
2017-10-03T09:05:37.259Z,14.62
2017-10-03T09:06:47.194Z,14.78
2017-10-03T09:07:57.384Z,14.71
2017-10-03T09:09:07.673Z,14.79
2017-10-03T09:10:17.618Z,14.62
2017-10-03T09:11:27.887Z,14.71
2017-10-03T09:12:38.144Z,14.79
2017-10-03T09:13:48.669Z,14.66
2017-10-03T09:14:58.620Z,14.63
2017-10-03T09:16:08.248Z,14.58
2017-10-03T09:17:18.523Z,14.63
2017-10-03T09:18:28.467Z,14.59
2017-10-03T09:19:38.668Z,14.67
2017-10-03T09:20:48.928Z,14.67
2017-10-03T09:21:58.886Z,14.59
2017-10-03T09:23:09.150Z,14.59
2017-10-03T09:24:19.401Z,14.61
2017-10-03T09:25:29.942Z,14.61
2017-10-03T09:26:39.884Z,14.59
2017-10-03T09:27:49.506Z,14.59
2017-10-03T09:28:59.756Z,14.59
2017-10-03T09:30:09.711Z,14.61
2017-10-03T09:31:20.206Z,14.51
2017-10-03T09:32:30.471Z,14.58
2017-10-03T09:33:40.441Z,14.52
2017-10-03T09:34:50.699Z,14.48
2017-10-03T09:36:00.960Z,14.25
2017-10-03T09:37:11.464Z,14.33
2017-10-03T09:38:21.410Z,14.3
2017-10-03T09:39:31.364Z,14.2
2017-10-03T09:40:41.631Z,14.31
2017-10-03T09:41:51.889Z,14.28
2017-10-03T09:43:02.390Z,14.25
2017-10-03T09:44:12.668Z,14.3
2017-10-03T09:45:22.300Z,14.37
2017-10-03T09:46:32.566Z,14.4
2017-10-03T09:47:42.829Z,14.51
2017-10-03T09:48:53.019Z,14.56
2017-10-03T09:50:03.276Z,14.62
2017-10-03T09:51:13.522Z,14.67
2017-10-03T09:52:23.776Z,14.63
2017-10-03T09:53:34.037Z,14.62
2017-10-03T09:54:44.222Z,14.66
2017-10-03T09:55:54.160Z,14.61
2017-10-03T09:57:04.427Z,14.51
2017-10-03T09:58:14.369Z,14.59
2017-10-03T09:59:24.310Z,14.81
2017-10-03T10:00:34.500Z,14.86
2017-10-03T10:01:44.778Z,14.82
2017-10-03T10:02:55.052Z,14.85
2017-10-03T10:04:05.311Z,14.97
2017-10-03T10:05:15.566Z,14.99
2017-10-03T10:06:26.068Z,14.9
2017-10-03T10:07:36.332Z,14.99
2017-10-03T10:08:46.288Z,15.14
2017-10-03T10:09:56.239Z,15.17
2017-10-03T10:11:06.175Z,15.23
2017-10-03T10:12:16.687Z,15.43
2017-10-03T10:13:26.624Z,15.48
2017-10-03T10:14:36.881Z,15.52
2017-10-03T10:15:47.128Z,15.6
2017-10-03T10:16:57.073Z,15.84
2017-10-03T10:18:07.261Z,15.84
2017-10-03T10:19:17.216Z,15.76
2017-10-03T10:20:26.849Z,15.66
2017-10-03T10:21:36.794Z,15.47
2017-10-03T10:22:47.067Z,15.39
2017-10-03T10:23:57.614Z,15.29
2017-10-03T10:25:07.577Z,15.26
2017-10-03T10:26:17.519Z,15.19
2017-10-03T10:27:27.771Z,15.23
2017-10-03T10:28:38.062Z,15.22
2017-10-03T10:29:48.263Z,15.3
2017-10-03T10:30:58.534Z,15.25
2017-10-03T10:32:08.782Z,15.23
2017-10-03T10:33:19.035Z,15.07
2017-10-03T10:34:29.302Z,15.1
2017-10-03T10:35:39.831Z,14.93
2017-10-03T10:36:50.085Z,14.92
2017-10-03T10:38:00.345Z,14.81
2017-10-03T10:39:10.611Z,14.66
2017-10-03T10:40:20.873Z,14.56
2017-10-03T10:41:31.380Z,14.53
2017-10-03T10:42:41.643Z,14.51
2017-10-03T10:43:51.579Z,14.45
2017-10-03T10:45:01.839Z,14.51
2017-10-03T10:46:11.775Z,14.52
2017-10-03T10:47:22.275Z,14.63
2017-10-03T10:48:32.530Z,14.9
2017-10-03T10:49:42.781Z,15.25
2017-10-03T10:50:53.053Z,15.5
2017-10-03T10:52:03.333Z,15.66
2017-10-03T10:53:13.834Z,15.75
2017-10-03T10:54:23.474Z,16.09
2017-10-03T10:55:33.420Z,16.08
2017-10-03T10:56:43.690Z,16.26
2017-10-03T10:57:53.643Z,16.34
2017-10-03T10:59:03.836Z,16.43
2017-10-03T11:00:14.096Z,16.51
2017-10-03T11:01:24.037Z,16.47
2017-10-03T11:02:33.678Z,16.36
2017-10-03T11:03:44.541Z,16.31
2017-10-03T11:04:55.069Z,16.21
2017-10-03T11:06:05.338Z,16.03
2017-10-03T11:07:14.972Z,15.75
2017-10-03T11:08:24.912Z,15.75
2017-10-03T11:09:34.858Z,15.67
2017-10-03T11:10:45.378Z,15.7
2017-10-03T11:11:55.643Z,15.75
2017-10-03T11:13:05.895Z,15.72
2017-10-03T11:14:16.172Z,15.7
2017-10-03T11:15:26.434Z,15.78
2017-10-03T11:16:36.632Z,15.65
2017-10-03T11:17:46.927Z,15.67
2017-10-03T11:18:57.181Z,15.62
2017-10-03T11:20:07.122Z,15.51
2017-10-03T11:21:16.750Z,15.52
2017-10-03T11:22:26.624Z,15.43
2017-10-03T11:23:36.891Z,15.33
2017-10-03T11:24:46.842Z,15.36
2017-10-03T11:25:56.789Z,15.27
2017-10-03T11:27:06.731Z,15.17
2017-10-03T11:28:17.235Z,15.19
2017-10-03T11:29:26.874Z,15.17
2017-10-03T11:30:36.829Z,15.11
2017-10-03T11:31:47.085Z,15.07
2017-10-03T11:32:57.032Z,14.97
2017-10-03T11:34:07.544Z,15.08
2017-10-03T11:35:17.916Z,15.17
2017-10-03T11:36:27.859Z,15.29
2017-10-03T11:37:38.134Z,15.45
2017-10-03T11:38:48.407Z,15.57
2017-10-03T11:39:58.605Z,15.87
2017-10-03T11:41:08.878Z,15.88
2017-10-03T11:42:19.140Z,15.92
2017-10-03T11:43:29.084Z,16.08
2017-10-03T11:44:39.349Z,16.4
2017-10-03T11:45:49.547Z,16.68
2017-10-03T11:46:59.807Z,17.01
2017-10-03T11:48:10.078Z,17.1
2017-10-03T11:49:20.338Z,17.14
2017-10-03T11:50:30.608Z,17.02
2017-10-03T11:51:41.130Z,16.98
2017-10-03T11:52:51.394Z,16.91
2017-10-03T11:54:01.653Z,16.65
2017-10-03T11:55:11.918Z,16.51
2017-10-03T11:56:22.188Z,16.41
2017-10-03T11:57:32.706Z,16.4
2017-10-03T11:58:42.982Z,16.36
2017-10-03T11:59:53.238Z,16.26
2017-10-03T12:01:03.188Z,16.21
2017-10-03T12:02:13.467Z,16.31
2017-10-03T12:03:23.353Z,16.65
2017-10-03T12:04:33.332Z,16.91
2017-10-03T12:05:43.605Z,17.02
2017-10-03T12:06:53.865Z,17.16
2017-10-03T12:08:03.807Z,17.54
2017-10-03T12:09:14.317Z,17.88
2017-10-03T12:10:24.274Z,18.18
2017-10-03T12:11:34.542Z,18.37
2017-10-03T12:12:44.809Z,18.42
2017-10-03T12:13:55.065Z,18.46
2017-10-03T12:15:05.291Z,17.79
2017-10-03T12:16:15.555Z,17.35
2017-10-03T12:17:25.818Z,17.22
2017-10-03T12:18:36.095Z,17.14
2017-10-03T12:19:46.619Z,17.12
2017-10-03T12:20:56.838Z,16.97
2017-10-03T12:22:06.794Z,16.8
2017-10-03T12:23:17.081Z,16.84
2017-10-03T12:24:27.353Z,16.82
2017-10-03T12:25:37.302Z,16.65
2017-10-03T12:26:47.808Z,16.55
2017-10-03T12:27:57.756Z,16.37
2017-10-03T12:29:08.020Z,16.28
2017-10-03T12:30:18.544Z,16.29
2017-10-03T12:31:28.803Z,16.24
2017-10-03T12:32:38.694Z,16.39
2017-10-03T12:33:48.641Z,16.46
2017-10-03T12:34:58.890Z,16.41
2017-10-03T12:36:08.532Z,16.34
2017-10-03T12:37:18.797Z,16.26
2017-10-03T12:38:28.994Z,16.25
2017-10-03T12:39:39.255Z,16.49
2017-10-03T12:40:49.509Z,16.69
2017-10-03T12:41:59.461Z,16.74
2017-10-03T12:43:09.399Z,16.82
2017-10-03T12:44:19.925Z,16.87
2017-10-03T12:45:29.866Z,17.04
2017-10-03T12:46:39.501Z,17.22
2017-10-03T12:47:49.760Z,17.49
2017-10-03T12:49:00.015Z,17.86
2017-10-03T12:50:10.235Z,17.98
2017-10-03T12:51:20.487Z,18.26
2017-10-03T12:52:30.774Z,18.37
2017-10-03T12:53:41.049Z,18.46
2017-10-03T12:54:51.304Z,18.53
2017-10-03T12:56:01.176Z,18.52
2017-10-03T12:57:11.444Z,18.53
2017-10-03T12:58:21.424Z,18.37
2017-10-03T12:59:31.383Z,17.91
2017-10-03T13:00:41.635Z,17.6
2017-10-03T13:01:51.854Z,17.5
2017-10-03T13:03:01.502Z,17.49
2017-10-03T13:04:11.756Z,17.24
2017-10-03T13:05:22.020Z,17.2
2017-10-03T13:06:32.279Z,17.31
2017-10-03T13:07:42.789Z,17.39
2017-10-03T13:08:53.045Z,17.5
2017-10-03T13:10:02.671Z,17.68
2017-10-03T13:11:12.940Z,17.94
2017-10-03T13:12:23.203Z,18.05
2017-10-03T13:13:33.739Z,17.86
2017-10-03T13:14:43.994Z,17.76
2017-10-03T13:15:53.941Z,17.69
2017-10-03T13:17:04.195Z,17.47
2017-10-03T13:18:14.454Z,16.95
2017-10-03T13:19:24.649Z,16.47
2017-10-03T13:20:35.015Z,16.25
2017-10-03T13:21:45.294Z,15.91
2017-10-03T13:22:55.231Z,15.73
2017-10-03T13:24:05.520Z,15.52
2017-10-03T13:25:15.096Z,15.6
2017-10-03T13:26:25.385Z,15.65
2017-10-03T13:27:35.341Z,15.78
2017-10-03T13:28:45.286Z,15.81
2017-10-03T13:29:55.557Z,15.96
2017-10-03T13:31:05.755Z,15.98
2017-10-03T13:32:16.022Z,15.99
2017-10-03T13:33:25.670Z,16.03
2017-10-03T13:34:35.907Z,16.09
2017-10-03T13:35:45.851Z,16.25
2017-10-03T13:36:56.362Z,16.49
2017-10-03T13:38:06.624Z,16.61
2017-10-03T13:39:16.885Z,16.69
2017-10-03T13:40:27.147Z,16.66
2017-10-03T13:41:37.096Z,16.72
2017-10-03T13:42:47.610Z,16.8
2017-10-03T13:43:57.895Z,17.01
2017-10-03T13:45:08.171Z,16.97
2017-10-03T13:46:18.112Z,17.04
2017-10-03T13:47:28.378Z,17.02
2017-10-03T13:48:38.889Z,17.07
2017-10-03T13:49:49.172Z,17.09
2017-10-03T13:50:59.118Z,17.09
2017-10-03T13:52:09.066Z,17.16
2017-10-03T13:53:19.320Z,17.16
2017-10-03T13:54:32.921Z,17.2
2017-10-03T13:55:43.186Z,17.12
2017-10-03T13:56:53.469Z,17.1
2017-10-03T13:58:03.413Z,17.38
2017-10-03T13:59:13.684Z,17.42
2017-10-03T14:00:23.949Z,17.68
2017-10-03T14:01:34.222Z,17.68
2017-10-03T14:02:43.858Z,17.87
2017-10-03T14:03:54.124Z,17.9
2017-10-03T14:05:04.388Z,17.82
2017-10-03T14:06:14.661Z,17.78
2017-10-03T14:07:24.938Z,17.68
2017-10-03T14:08:34.923Z,17.76
2017-10-03T14:09:45.181Z,17.91
2017-10-03T14:10:55.124Z,17.97
2017-10-03T14:12:05.079Z,17.95
2017-10-03T14:13:15.345Z,18
2017-10-03T14:14:25.596Z,17.82
2017-10-03T14:15:35.580Z,17.87
2017-10-03T14:16:45.850Z,17.93
2017-10-03T14:17:56.115Z,17.86
2017-10-03T14:19:05.756Z,17.66
2017-10-03T14:20:16.031Z,17.65
2017-10-03T14:21:26.331Z,17.71
2017-10-03T14:22:36.591Z,17.39
2017-10-03T14:23:46.548Z,17.49
2017-10-03T14:24:56.485Z,17.69
2017-10-03T14:26:06.429Z,17.84
2017-10-03T14:27:16.693Z,17.79
2017-10-03T14:28:26.662Z,17.91
2017-10-03T14:29:36.914Z,18.13
2017-10-03T14:30:46.871Z,18.06
2017-10-03T14:31:56.210Z,18.03
2017-10-03T14:33:06.474Z,18
2017-10-03T14:34:16.760Z,18.15
2017-10-03T14:35:27.030Z,18.16
2017-10-03T14:36:36.971Z,18.12
2017-10-03T14:37:46.917Z,18.16
2017-10-03T14:38:57.195Z,18.05
2017-10-03T14:40:07.481Z,17.97
2017-10-03T14:41:17.738Z,18.02
2017-10-03T14:42:27.989Z,17.88
2017-10-03T14:43:38.279Z,17.79
2017-10-03T14:44:48.225Z,17.66
2017-10-03T14:45:58.479Z,17.47
2017-10-03T14:47:08.738Z,17.16
2017-10-03T14:48:19.028Z,16.44
2017-10-03T14:49:29.285Z,16.08
2017-10-03T14:50:39.239Z,15.84
2017-10-03T14:51:49.179Z,15.7
2017-10-03T14:52:58.811Z,15.67
2017-10-03T14:54:09.098Z,15.54
2017-10-03T14:55:19.041Z,15.44
2017-10-03T14:56:29.318Z,15.5
2017-10-03T14:57:39.603Z,15.44
2017-10-03T14:58:49.866Z,15.36
2017-10-03T15:00:00.129Z,15.43
2017-10-03T15:01:09.764Z,15.35
2017-10-03T15:02:20.054Z,15.19
2017-10-03T15:03:30.311Z,15.25
2017-10-03T15:04:40.580Z,15.15
2017-10-03T15:05:50.851Z,15.23
2017-10-03T15:07:01.113Z,15.19
2017-10-03T15:08:11.373Z,15.17
2017-10-03T15:09:20.693Z,15.17